x

Central Aleutians 230nm Sw Dutch Harbor (46072) Wave Buoy

6:50am - Wed 28th Sep 2016 All times are UTC.

  • Sig Wave height 4.6ft
  • Swell Direction
  • Peak Period 10s
  • Average Period 7s
  • Wind
    11mph, 13mph gusts
  • Sea Temp 51°f
  • Air Temp 51°f
  • Sea Pressure 1029mb

More Historic Weather Station data

Upgrade to MSW Pro to gain access to the past 30 days of data for over 8000 Wavebouys and Weather Stations around the globe.

Join Pro

Comparision Forecast

View Surf forecast
   
Wed 09/28 6:50am 4.5ft 10s 7s 11 13 mph 1029mb 51f 51f
5:50am 5ft 10s 7s 9 11 mph 1028.7mb 51f 51f
4:50am 4.5ft 10s 7s 9
mph
1028.3mb 51f 51f
3:50am 4ft 9s 7s 7 9 mph 1028mb 51f 52f
2:50am 4.5ft 9s 7s 7 9 mph 1027.9mb 50f 52f
1:50am 4ft 10s 7s 9 11 mph 1027.8mb 51f 52f
12:50am 3.5ft 10s 6s 9 11 mph 1027.7mb 51f 52f
Tue 09/27 11:50pm 3.5ft 11s 7s 11
mph
1028mb 51f 51f
10:50pm 3ft 16s 6s 11 13 mph 1027.8mb 51f 51f
9:50pm 3.5ft 16s 6s 11 13 mph 1027.7mb 51f 50f
8:50pm 3.5ft 16s 6s 11
mph
1027.6mb 51f 50f
7:50pm 4ft 10s 6s 11 13 mph 1027.6mb 51f 49f
6:50pm 3.5ft 10s 5s 13 16 mph 1027.2mb 51f 46f
5:50pm 4ft 8s 6s 13 16 mph 1026.8mb 51f 47f
4:50pm 4ft 16s 6s 13 16 mph 1026.4mb 50f 49f
3:50pm 3.5ft 7s 6s 7 9 mph 1026.5mb 51f 51f
2:50pm 3.5ft 7s 6s 11 13 mph 1026.1mb 51f 51f
1:50pm 4ft 8s 7s 9 11 mph 1025.9mb 51f 51f
12:50pm 3.5ft 7s 7s 9 11 mph 1026mb 51f 51f
11:50am 3.5ft 16s 7s 7
mph
1026mb 51f 50f
10:50am 4ft 16s 6s 4
mph
1026.1mb 51f 50f
9:50am 4.5ft 7s 6s 2
mph
1026.2mb 51f 50f
8:50am 4.5ft 7s 6s 4
mph
1026mb 51f 49f
7:50am 5ft 7s 6s 4
mph
1025.7mb 50f 49f
6:50am 5ft 7s 6s 4
mph
1025.2mb 50f 49f
5:50am 5.5ft 7s 6s 4
mph
1024.8mb 50f 49f
4:50am 5ft 7s 6s 7 9 mph 1024.3mb 51f 49f
3:50am 5ft 7s 6s 7 9 mph 1024mb 51f 49f
2:50am 5ft 7s 6s 9 11 mph 1024mb 51f 49f
1:50am 6ft 8s 7s 7 9 mph 1023.8mb 51f 49f
12:50am 5ft 8s 6s 7 9 mph 1023.7mb 50f 49f
Mon 09/26 11:50pm 5ft 8s 6s 9 11 mph 1023.9mb 49f 48f
10:50pm 5.5ft 8s 6s 9 11 mph 1023.9mb 49f 48f
8:50pm 6ft 8s 6s 13 16 mph 1023.5mb 49f 49f
7:50pm 6.5ft 8s 6s 13 16 mph 1023.1mb 48f 48f
6:50pm 6ft 8s 6s 16 18 mph 1022.4mb 48f 48f
5:50pm 7ft 8s 6s 13 18 mph 1021.8mb 48f 48f
4:50pm 8ft 8s 6s 13 18 mph 1021.6mb 48f 48f
3:50pm 9ft 8s 7s 16 20 mph 1021mb 48f 48f
2:50pm 8ft 8s 7s 16 20 mph 1020.8mb 48f 48f
1:50pm 8ft 8s 7s 16 20 mph 1020.6mb 48f 48f
12:50pm 10ft 9s 7s 20 25 mph 1020.1mb 48f 49f
11:50am 9ft 9s 7s 20 22 mph 1019.9mb 48f 49f
10:50am 9.5ft 8s 7s 22 27 mph 1019.9mb 48f 49f
9:50am 9.5ft 8s 7s 22 29 mph 1019.8mb 47f 49f
8:50am 8.5ft 8s 6s 20 29 mph 1019.8mb 47f 49f
7:50am 8ft 7s 6s 27 31 mph 1019.4mb 47f 49f
6:50am 8ft 7s 5s 27 34 mph 1019.6mb 47f 50f
5:50am 8ft 7s 6s 22 29 mph 1019.9mb 47f 50f
4:50am 8ft 7s 6s 22 29 mph 1020.5mb 47f 50f
3:50am 7.5ft 7s 6s 25 29 mph 1020.2mb 47f 50f
2:50am 6ft 7s 5s 25 29 mph 1020.7mb 47f 50f
1:50am 6ft 6s 5s 22 25 mph 1021.4mb 47f 50f
12:50am 5ft 6s 5s 22 27 mph 1021.5mb 47f 50f
Sun 09/25 11:50pm 4.5ft 6s 5s 20 25 mph 1022mb 47f 50f
10:50pm 4.5ft 6s 5s 18 20 mph 1022.9mb 47f 50f
9:50pm 4ft 5s 5s 16 18 mph 1023.4mb 47f 50f
8:50pm 3.5ft 6s 5s 16 18 mph 1023.6mb 49f 50f
7:50pm 3.5ft 16s 6s 20 22 mph 1023.5mb 49f 50f
6:50pm 3.5ft 6s 5s 13 16 mph 1023.7mb 49f 50f
5:50pm 4ft 16s 5s 13 18 mph 1023.7mb 48f 49f
4:50pm 4.5ft 8s 5s 13 18 mph 1023.6mb 48f 49f
3:50pm 4.5ft 8s 6s 13 25 mph 1023.5mb 48f 49f
2:50pm 5ft 7s 6s 11 13 mph 1023.7mb 48f 49f
1:50pm 5ft 7s 6s 13 18 mph 1023.9mb 48f 47f
12:50pm 5ft 7s 6s 9 11 mph 1024mb 49f 48f
11:50am 5ft 8s 6s 11 13 mph 1024.2mb 48f 48f
10:50am 4.5ft 9s 6s 13 16 mph 1024mb 48f 48f
9:50am 5ft 8s 6s 13 18 mph 1024.2mb 48f 48f
8:50am 4.5ft 6s 6s 11 13 mph 1024.3mb 48f 48f
7:50am 5ft 7s 6s 13 18 mph 1024mb 50f 49f
6:50am 5.5ft 8s 6s 11 13 mph 1023.7mb 50f 49f
5:50am 6ft 7s 6s 13
mph
1023mb 50f 49f
4:50am 6ft 7s 6s 16 18 mph 1022.7mb 50f 49f
3:50am 6ft 7s 6s 16 18 mph 1022.2mb 51f 49f
2:50am 6ft 8s 6s 16 18 mph 1022.2mb 51f 49f
1:50am 6ft 8s 6s 16 18 mph 1022.1mb 50f 49f
12:50am 6ft 8s 6s 13 16 mph 1021.8mb 50f 49f
Sat 09/24 11:50pm 6ft 9s 7s 16 20 mph 1021.7mb 50f 49f
10:50pm 6.5ft 8s 7s 18 20 mph 1021.4mb 51f 49f
9:50pm 7ft 9s 7s 18 20 mph 1021.3mb 51f 49f
8:50pm 6ft 9s 7s 18 22 mph 1021.1mb 49f 49f
7:50pm 6ft 9s 7s 16 18 mph 1020.7mb 49f 49f
6:50pm 6ft 9s 7s 18 20 mph 1020.2mb 50f 48f
5:50pm 6ft 9s 7s 16 20 mph 1019.6mb 50f 49f
4:50pm 6ft 9s 6s 18 20 mph 1019mb 51f 49f
3:50pm 7ft 9s 6s 18 20 mph 1018.6mb 51f 48f
2:50pm 6.5ft 8s 6s 18 20 mph 1018.2mb 51f 48f
1:50pm 6.5ft 9s 6s 16 20 mph 1018.2mb 51f 48f
12:50pm 7ft 9s 6s 16 18 mph 1018.1mb 51f 48f
11:50am 7ft 8s 7s 16 20 mph 1017.7mb 51f 48f
10:50am 6ft 8s 7s 16 18 mph 1017.7mb 51f 48f
9:50am 6ft 8s 6s 18 20 mph 1017.4mb 51f 48f
8:50am 6ft 9s 7s 16 18 mph 1017.2mb 51f 48f
7:50am 6.5ft 8s 7s 18 22 mph 1016.5mb 50f 48f